Wrightsville, Pennsylvania
Current Conditions -  °F | °C
As of 6:53 AM on Friday 19 Dec 2014 (Local Time) from KLNS Reporting Station
Overcast Overcast  
Wind Chill: 25°   Ceiling: 3100
Heat Index: 34°   Visibility: 10mi
Dew Point: 24°   Wind: 13mph
Humidity: 67%   Direction: 290°WNW
Pressure: 30.07"   Gusts: NA
Location:  40.03°N, 76.53°W
Report Text: KLNS 191153Z 29011KT 10SM OVC031 01/M04 A3007 RMK AO2 SLP185 T00111044 10011 20006 53006
Loading
Personal Weather Stations






























Interactive Weather Map New forecast layout! Learn more

10-Day Weather Forecast

Advertisements
Track Severe Weather on mobile